sensor_id;sensor_type;location;lat;lon;timestamp;P1;durP1;ratioP1;P2;durP2;ratioP2
11197;SDS011;5655;48.744;9.162;2022-12-18T00:01:05;73.80;;;31.23;;
11197;SDS011;5655;48.744;9.162;2022-12-18T00:03:38;73.10;;;31.73;;
11197;SDS011;5655;48.744;9.162;2022-12-18T00:06:03;81.57;;;33.27;;
11197;SDS011;5655;48.744;9.162;2022-12-18T00:08:29;80.23;;;34.03;;
11197;SDS011;5655;48.744;9.162;2022-12-18T00:10:54;72.50;;;31.73;;
11197;SDS011;5655;48.744;9.162;2022-12-18T00:13:20;77.57;;;32.60;;
11197;SDS011;5655;48.744;9.162;2022-12-18T00:15:45;78.70;;;33.17;;
11197;SDS011;5655;48.744;9.162;2022-12-18T00:18:10;97.17;;;48.13;;
11197;SDS011;5655;48.744;9.162;2022-12-18T00:20:36;85.67;;;37.13;;
11197;SDS011;5655;48.744;9.162;2022-12-18T00:23:03;72.20;;;34.00;;
11197;SDS011;5655;48.744;9.162;2022-12-18T00:25:29;83.43;;;34.30;;
11197;SDS011;5655;48.744;9.162;2022-12-18T00:27:54;76.23;;;32.93;;
11197;SDS011;5655;48.744;9.162;2022-12-18T00:30:20;73.23;;;31.23;;
11197;SDS011;5655;48.744;9.162;2022-12-18T00:32:45;76.83;;;31.57;;
11197;SDS011;5655;48.744;9.162;2022-12-18T00:35:10;75.73;;;31.60;;
11197;SDS011;5655;48.744;9.162;2022-12-18T00:37:36;72.23;;;29.73;;
11197;SDS011;5655;48.744;9.162;2022-12-18T00:40:01;80.57;;;31.50;;
11197;SDS011;5655;48.744;9.162;2022-12-18T00:42:27;77.30;;;30.30;;
11197;SDS011;5655;48.744;9.162;2022-12-18T00:45:11;71.67;;;30.00;;
11197;SDS011;5655;48.744;9.162;2022-12-18T00:47:36;79.77;;;31.33;;
11197;SDS011;5655;48.744;9.162;2022-12-18T00:50:02;74.17;;;28.87;;
11197;SDS011;5655;48.744;9.162;2022-12-18T00:52:27;73.43;;;30.23;;
11197;SDS011;5655;48.744;9.162;2022-12-18T00:54:52;78.93;;;32.37;;
11197;SDS011;5655;48.744;9.162;2022-12-18T00:57:18;83.67;;;31.53;;
11197;SDS011;5655;48.744;9.162;2022-12-18T00:59:43;80.10;;;32.67;;
11197;SDS011;5655;48.744;9.162;2022-12-18T01:02:08;75.27;;;29.47;;
11197;SDS011;5655;48.744;9.162;2022-12-18T01:04:33;70.03;;;29.13;;
11197;SDS011;5655;48.744;9.162;2022-12-18T01:06:59;71.77;;;29.77;;
11197;SDS011;5655;48.744;9.162;2022-12-18T01:09:24;77.03;;;32.90;;
11197;SDS011;5655;48.744;9.162;2022-12-18T01:11:50;63.13;;;28.30;;
11197;SDS011;5655;48.744;9.162;2022-12-18T01:14:15;71.67;;;28.93;;
11197;SDS011;5655;48.744;9.162;2022-12-18T01:16:40;66.70;;;29.60;;
11197;SDS011;5655;48.744;9.162;2022-12-18T01:19:06;66.37;;;27.43;;
11197;SDS011;5655;48.744;9.162;2022-12-18T01:21:31;72.83;;;28.80;;
11197;SDS011;5655;48.744;9.162;2022-12-18T01:23:57;71.43;;;28.37;;
11197;SDS011;5655;48.744;9.162;2022-12-18T01:26:23;65.13;;;26.53;;
11197;SDS011;5655;48.744;9.162;2022-12-18T01:28:49;72.57;;;29.00;;
11197;SDS011;5655;48.744;9.162;2022-12-18T01:31:15;61.67;;;27.20;;
11197;SDS011;5655;48.744;9.162;2022-12-18T01:33:45;75.23;;;30.57;;
11197;SDS011;5655;48.744;9.162;2022-12-18T01:36:18;70.53;;;29.50;;
11197;SDS011;5655;48.744;9.162;2022-12-18T01:38:45;67.60;;;27.43;;
11197;SDS011;5655;48.744;9.162;2022-12-18T01:41:12;61.03;;;27.13;;
11197;SDS011;5655;48.744;9.162;2022-12-18T01:43:56;64.80;;;28.07;;
11197;SDS011;5655;48.744;9.162;2022-12-18T01:46:23;64.77;;;27.80;;
11197;SDS011;5655;48.744;9.162;2022-12-18T01:48:50;57.53;;;26.50;;
11197;SDS011;5655;48.744;9.162;2022-12-18T01:51:19;56.97;;;25.07;;
11197;SDS011;5655;48.744;9.162;2022-12-18T01:53:44;67.00;;;29.00;;
11197;SDS011;5655;48.744;9.162;2022-12-18T01:56:15;61.37;;;26.37;;
11197;SDS011;5655;48.744;9.162;2022-12-18T02:01:23;61.23;;;25.87;;
11197;SDS011;5655;48.744;9.162;2022-12-18T02:03:50;69.37;;;27.47;;
11197;SDS011;5655;48.744;9.162;2022-12-18T02:06:50;71.47;;;27.30;;
11197;SDS011;5655;48.744;9.162;2022-12-18T02:09:10;56.97;;;26.30;;
11197;SDS011;5655;48.744;9.162;2022-12-18T02:11:46;64.07;;;26.37;;
11197;SDS011;5655;48.744;9.162;2022-12-18T02:17:10;64.33;;;28.53;;
11197;SDS011;5655;48.744;9.162;2022-12-18T02:28:30;66.53;;;25.90;;
11197;SDS011;5655;48.744;9.162;2022-12-18T02:30:59;59.30;;;25.47;;
11197;SDS011;5655;48.744;9.162;2022-12-18T02:33:28;60.23;;;23.83;;
11197;SDS011;5655;48.744;9.162;2022-12-18T02:35:55;52.17;;;23.37;;
11197;SDS011;5655;48.744;9.162;2022-12-18T02:38:22;55.30;;;24.80;;
11197;SDS011;5655;48.744;9.162;2022-12-18T02:40:49;60.03;;;24.63;;
11197;SDS011;5655;48.744;9.162;2022-12-18T02:43:16;49.33;;;24.67;;
11197;SDS011;5655;48.744;9.162;2022-12-18T02:45:50;61.83;;;24.63;;
11197;SDS011;5655;48.744;9.162;2022-12-18T02:48:19;59.53;;;24.20;;
11197;SDS011;5655;48.744;9.162;2022-12-18T02:50:52;56.03;;;25.30;;
11197;SDS011;5655;48.744;9.162;2022-12-18T03:01:30;52.27;;;22.90;;
11197;SDS011;5655;48.744;9.162;2022-12-18T03:04:04;55.27;;;22.40;;
11197;SDS011;5655;48.744;9.162;2022-12-18T03:06:43;54.00;;;22.73;;
11197;SDS011;5655;48.744;9.162;2022-12-18T03:09:14;62.70;;;23.70;;
11197;SDS011;5655;48.744;9.162;2022-12-18T03:11:48;57.17;;;22.90;;
11197;SDS011;5655;48.744;9.162;2022-12-18T03:14:40;54.50;;;23.73;;
11197;SDS011;5655;48.744;9.162;2022-12-18T03:17:09;54.13;;;21.47;;
11197;SDS011;5655;48.744;9.162;2022-12-18T03:19:38;51.77;;;20.50;;
11197;SDS011;5655;48.744;9.162;2022-12-18T03:22:07;54.77;;;21.23;;
11197;SDS011;5655;48.744;9.162;2022-12-18T03:24:33;53.70;;;23.37;;
11197;SDS011;5655;48.744;9.162;2022-12-18T03:27:02;45.97;;;19.40;;
11197;SDS011;5655;48.744;9.162;2022-12-18T03:29:34;49.20;;;21.97;;
11197;SDS011;5655;48.744;9.162;2022-12-18T03:32:08;44.53;;;21.70;;
11197;SDS011;5655;48.744;9.162;2022-12-18T03:34:37;55.23;;;20.53;;
11197;SDS011;5655;48.744;9.162;2022-12-18T03:37:05;49.20;;;21.30;;
11197;SDS011;5655;48.744;9.162;2022-12-18T03:39:33;41.40;;;18.83;;
11197;SDS011;5655;48.744;9.162;2022-12-18T03:52:38;47.97;;;20.77;;
11197;SDS011;5655;48.744;9.162;2022-12-18T03:55:09;58.67;;;21.93;;
11197;SDS011;5655;48.744;9.162;2022-12-18T03:57:36;47.03;;;20.30;;
11197;SDS011;5655;48.744;9.162;2022-12-18T04:00:07;50.00;;;18.77;;
11197;SDS011;5655;48.744;9.162;2022-12-18T04:02:35;52.03;;;21.40;;
11197;SDS011;5655;48.744;9.162;2022-12-18T04:05:05;46.90;;;18.87;;
11197;SDS011;5655;48.744;9.162;2022-12-18T04:07:32;52.87;;;22.63;;
11197;SDS011;5655;48.744;9.162;2022-12-18T04:09:58;51.10;;;21.00;;
11197;SDS011;5655;48.744;9.162;2022-12-18T04:12:28;47.60;;;20.80;;
11197;SDS011;5655;48.744;9.162;2022-12-18T04:14:54;56.80;;;21.20;;
11197;SDS011;5655;48.744;9.162;2022-12-18T04:17:20;46.57;;;19.90;;
11197;SDS011;5655;48.744;9.162;2022-12-18T04:19:46;51.23;;;21.73;;
11197;SDS011;5655;48.744;9.162;2022-12-18T04:22:11;53.37;;;21.47;;
11197;SDS011;5655;48.744;9.162;2022-12-18T04:24:36;49.43;;;20.20;;
11197;SDS011;5655;48.744;9.162;2022-12-18T04:27:02;51.73;;;21.93;;
11197;SDS011;5655;48.744;9.162;2022-12-18T04:29:28;55.40;;;22.13;;
11197;SDS011;5655;48.744;9.162;2022-12-18T04:31:53;52.63;;;20.67;;
11197;SDS011;5655;48.744;9.162;2022-12-18T04:34:19;48.10;;;20.60;;
11197;SDS011;5655;48.744;9.162;2022-12-18T04:36:45;47.27;;;21.17;;
11197;SDS011;5655;48.744;9.162;2022-12-18T04:39:10;47.03;;;20.87;;
11197;SDS011;5655;48.744;9.162;2022-12-18T04:41:35;54.63;;;22.20;;
11197;SDS011;5655;48.744;9.162;2022-12-18T04:44:01;50.63;;;21.70;;
11197;SDS011;5655;48.744;9.162;2022-12-18T04:46:26;46.33;;;21.00;;
11197;SDS011;5655;48.744;9.162;2022-12-18T04:48:51;54.73;;;21.83;;
11197;SDS011;5655;48.744;9.162;2022-12-18T04:51:17;54.67;;;22.33;;
11197;SDS011;5655;48.744;9.162;2022-12-18T04:53:42;48.43;;;21.00;;
11197;SDS011;5655;48.744;9.162;2022-12-18T04:56:12;40.63;;;18.90;;
11197;SDS011;5655;48.744;9.162;2022-12-18T04:58:39;47.03;;;19.03;;
11197;SDS011;5655;48.744;9.162;2022-12-18T05:01:05;50.60;;;20.13;;
11197;SDS011;5655;48.744;9.162;2022-12-18T05:03:32;42.17;;;18.50;;
11197;SDS011;5655;48.744;9.162;2022-12-18T05:05:58;44.90;;;19.90;;
11197;SDS011;5655;48.744;9.162;2022-12-18T05:08:23;46.43;;;18.93;;
11197;SDS011;5655;48.744;9.162;2022-12-18T05:10:49;52.70;;;20.53;;
11197;SDS011;5655;48.744;9.162;2022-12-18T05:13:14;48.13;;;21.23;;
11197;SDS011;5655;48.744;9.162;2022-12-18T05:15:39;49.57;;;19.93;;
11197;SDS011;5655;48.744;9.162;2022-12-18T05:18:05;57.50;;;21.20;;
11197;SDS011;5655;48.744;9.162;2022-12-18T05:20:30;47.83;;;21.20;;
11197;SDS011;5655;48.744;9.162;2022-12-18T05:22:56;46.87;;;19.10;;
11197;SDS011;5655;48.744;9.162;2022-12-18T05:25:21;50.67;;;20.63;;
11197;SDS011;5655;48.744;9.162;2022-12-18T05:27:47;49.95;;;22.38;;
11197;SDS011;5655;48.744;9.162;2022-12-18T05:30:13;57.50;;;22.13;;
11197;SDS011;5655;48.744;9.162;2022-12-18T05:32:40;52.67;;;21.10;;
11197;SDS011;5655;48.744;9.162;2022-12-18T05:35:06;50.37;;;19.77;;
11197;SDS011;5655;48.744;9.162;2022-12-18T05:37:33;46.00;;;18.93;;
11197;SDS011;5655;48.744;9.162;2022-12-18T05:39:58;51.57;;;21.37;;
11197;SDS011;5655;48.744;9.162;2022-12-18T05:42:24;42.20;;;17.80;;
11197;SDS011;5655;48.744;9.162;2022-12-18T05:44:49;51.83;;;20.50;;
11197;SDS011;5655;48.744;9.162;2022-12-18T05:47:14;51.83;;;20.40;;
11197;SDS011;5655;48.744;9.162;2022-12-18T05:49:40;42.43;;;19.63;;
11197;SDS011;5655;48.744;9.162;2022-12-18T05:52:05;48.27;;;20.93;;
11197;SDS011;5655;48.744;9.162;2022-12-18T05:54:30;47.87;;;20.67;;
11197;SDS011;5655;48.744;9.162;2022-12-18T05:56:56;38.53;;;18.07;;
11197;SDS011;5655;48.744;9.162;2022-12-18T05:59:22;46.33;;;18.63;;
11197;SDS011;5655;48.744;9.162;2022-12-18T06:01:47;43.20;;;19.00;;
11197;SDS011;5655;48.744;9.162;2022-12-18T06:04:12;44.87;;;18.97;;
11197;SDS011;5655;48.744;9.162;2022-12-18T06:06:38;46.23;;;18.90;;
11197;SDS011;5655;48.744;9.162;2022-12-18T06:09:03;40.87;;;19.20;;
11197;SDS011;5655;48.744;9.162;2022-12-18T06:11:34;44.80;;;19.77;;
11197;SDS011;5655;48.744;9.162;2022-12-18T06:14:01;47.73;;;19.90;;
11197;SDS011;5655;48.744;9.162;2022-12-18T06:16:28;46.90;;;20.50;;
11197;SDS011;5655;48.744;9.162;2022-12-18T06:18:57;42.03;;;20.70;;
11197;SDS011;5655;48.744;9.162;2022-12-18T06:21:23;42.17;;;19.57;;
11197;SDS011;5655;48.744;9.162;2022-12-18T06:23:49;46.37;;;19.90;;
11197;SDS011;5655;48.744;9.162;2022-12-18T06:26:14;42.00;;;19.43;;
11197;SDS011;5655;48.744;9.162;2022-12-18T06:28:40;47.07;;;18.30;;
11197;SDS011;5655;48.744;9.162;2022-12-18T06:31:06;42.17;;;19.60;;
11197;SDS011;5655;48.744;9.162;2022-12-18T06:33:31;50.07;;;19.73;;
11197;SDS011;5655;48.744;9.162;2022-12-18T06:36:01;45.47;;;17.93;;
11197;SDS011;5655;48.744;9.162;2022-12-18T06:38:31;45.03;;;19.00;;
11197;SDS011;5655;48.744;9.162;2022-12-18T06:40:57;39.90;;;18.10;;
11197;SDS011;5655;48.744;9.162;2022-12-18T06:43:23;46.40;;;20.10;;
11197;SDS011;5655;48.744;9.162;2022-12-18T06:45:48;45.00;;;18.13;;
11197;SDS011;5655;48.744;9.162;2022-12-18T06:48:17;44.03;;;17.97;;
11197;SDS011;5655;48.744;9.162;2022-12-18T06:50:46;41.00;;;18.17;;
11197;SDS011;5655;48.744;9.162;2022-12-18T06:53:11;50.40;;;20.00;;
11197;SDS011;5655;48.744;9.162;2022-12-18T06:55:37;41.23;;;18.10;;
11197;SDS011;5655;48.744;9.162;2022-12-18T06:58:02;47.43;;;19.93;;
11197;SDS011;5655;48.744;9.162;2022-12-18T07:00:27;50.97;;;20.53;;
11197;SDS011;5655;48.744;9.162;2022-12-18T07:02:53;42.40;;;19.07;;
11197;SDS011;5655;48.744;9.162;2022-12-18T07:05:18;47.17;;;20.73;;
11197;SDS011;5655;48.744;9.162;2022-12-18T07:07:43;49.87;;;19.80;;
11197;SDS011;5655;48.744;9.162;2022-12-18T07:10:09;47.47;;;19.40;;
11197;SDS011;5655;48.744;9.162;2022-12-18T07:12:34;41.03;;;18.90;;
11197;SDS011;5655;48.744;9.162;2022-12-18T07:14:59;45.73;;;17.57;;
11197;SDS011;5655;48.744;9.162;2022-12-18T07:17:24;42.93;;;18.47;;
11197;SDS011;5655;48.744;9.162;2022-12-18T07:19:50;38.47;;;16.90;;
11197;SDS011;5655;48.744;9.162;2022-12-18T07:22:15;43.43;;;18.23;;
11197;SDS011;5655;48.744;9.162;2022-12-18T07:24:40;40.73;;;18.30;;
11197;SDS011;5655;48.744;9.162;2022-12-18T07:27:06;37.63;;;18.43;;
11197;SDS011;5655;48.744;9.162;2022-12-18T07:29:31;42.23;;;17.47;;
11197;SDS011;5655;48.744;9.162;2022-12-18T07:31:56;38.80;;;16.70;;
11197;SDS011;5655;48.744;9.162;2022-12-18T07:34:22;42.10;;;18.90;;
11197;SDS011;5655;48.744;9.162;2022-12-18T07:36:47;41.57;;;17.90;;
11197;SDS011;5655;48.744;9.162;2022-12-18T07:39:12;41.67;;;18.70;;
11197;SDS011;5655;48.744;9.162;2022-12-18T07:41:38;37.57;;;16.93;;
11197;SDS011;5655;48.744;9.162;2022-12-18T07:44:08;41.97;;;19.77;;
11197;SDS011;5655;48.744;9.162;2022-12-18T07:46:35;43.67;;;17.00;;
11197;SDS011;5655;48.744;9.162;2022-12-18T07:49:00;43.70;;;18.47;;
11197;SDS011;5655;48.744;9.162;2022-12-18T07:51:25;58.50;;;19.47;;
11197;SDS011;5655;48.744;9.162;2022-12-18T07:53:51;45.90;;;19.90;;
11197;SDS011;5655;48.744;9.162;2022-12-18T07:56:16;48.87;;;18.97;;
11197;SDS011;5655;48.744;9.162;2022-12-18T07:58:41;46.10;;;18.97;;
11197;SDS011;5655;48.744;9.162;2022-12-18T08:01:07;39.80;;;19.20;;
11197;SDS011;5655;48.744;9.162;2022-12-18T08:03:34;42.17;;;18.60;;
11197;SDS011;5655;48.744;9.162;2022-12-18T08:06:00;42.13;;;18.27;;
11197;SDS011;5655;48.744;9.162;2022-12-18T08:08:27;44.53;;;18.77;;
11197;SDS011;5655;48.744;9.162;2022-12-18T08:10:53;40.23;;;18.50;;
11197;SDS011;5655;48.744;9.162;2022-12-18T08:13:19;46.27;;;19.83;;
11197;SDS011;5655;48.744;9.162;2022-12-18T08:15:44;46.23;;;19.57;;
11197;SDS011;5655;48.744;9.162;2022-12-18T08:18:09;43.20;;;18.67;;
11197;SDS011;5655;48.744;9.162;2022-12-18T08:20:35;46.03;;;18.73;;
11197;SDS011;5655;48.744;9.162;2022-12-18T08:23:00;45.70;;;19.60;;
11197;SDS011;5655;48.744;9.162;2022-12-18T08:25:25;47.30;;;19.37;;
11197;SDS011;5655;48.744;9.162;2022-12-18T08:27:51;51.60;;;20.27;;
11197;SDS011;5655;48.744;9.162;2022-12-18T08:30:16;51.03;;;19.83;;
11197;SDS011;5655;48.744;9.162;2022-12-18T08:32:41;45.13;;;18.93;;
11197;SDS011;5655;48.744;9.162;2022-12-18T08:35:07;46.93;;;20.33;;
11197;SDS011;5655;48.744;9.162;2022-12-18T08:37:33;45.07;;;18.60;;
11197;SDS011;5655;48.744;9.162;2022-12-18T08:39:58;43.80;;;19.10;;
11197;SDS011;5655;48.744;9.162;2022-12-18T08:42:24;42.20;;;18.43;;
11197;SDS011;5655;48.744;9.162;2022-12-18T08:45:08;46.43;;;19.57;;
11197;SDS011;5655;48.744;9.162;2022-12-18T08:47:34;51.90;;;20.97;;
11197;SDS011;5655;48.744;9.162;2022-12-18T08:49:59;42.77;;;18.40;;
11197;SDS011;5655;48.744;9.162;2022-12-18T08:52:24;43.40;;;18.43;;
11197;SDS011;5655;48.744;9.162;2022-12-18T08:54:50;52.33;;;21.23;;
11197;SDS011;5655;48.744;9.162;2022-12-18T08:57:15;47.37;;;20.97;;
11197;SDS011;5655;48.744;9.162;2022-12-18T08:59:41;43.73;;;19.27;;
11197;SDS011;5655;48.744;9.162;2022-12-18T09:02:07;52.70;;;19.87;;
11197;SDS011;5655;48.744;9.162;2022-12-18T09:04:34;45.40;;;19.93;;
11197;SDS011;5655;48.744;9.162;2022-12-18T09:07:00;53.13;;;21.20;;
11197;SDS011;5655;48.744;9.162;2022-12-18T09:09:25;47.20;;;19.90;;
11197;SDS011;5655;48.744;9.162;2022-12-18T09:11:50;54.57;;;21.77;;
11197;SDS011;5655;48.744;9.162;2022-12-18T09:14:15;41.20;;;19.13;;
11197;SDS011;5655;48.744;9.162;2022-12-18T09:16:41;47.70;;;20.63;;
11197;SDS011;5655;48.744;9.162;2022-12-18T09:19:06;49.73;;;19.70;;
11197;SDS011;5655;48.744;9.162;2022-12-18T09:21:33;54.63;;;21.33;;
11197;SDS011;5655;48.744;9.162;2022-12-18T09:23:59;52.00;;;20.30;;
11197;SDS011;5655;48.744;9.162;2022-12-18T09:26:25;46.13;;;20.97;;
11197;SDS011;5655;48.744;9.162;2022-12-18T09:28:52;53.67;;;23.53;;
11197;SDS011;5655;48.744;9.162;2022-12-18T09:31:18;57.27;;;23.00;;
11197;SDS011;5655;48.744;9.162;2022-12-18T09:33:44;52.10;;;23.93;;
11197;SDS011;5655;48.744;9.162;2022-12-18T09:36:11;55.43;;;22.83;;
11197;SDS011;5655;48.744;9.162;2022-12-18T09:38:37;55.27;;;23.30;;
11197;SDS011;5655;48.744;9.162;2022-12-18T09:41:05;51.93;;;22.17;;
11197;SDS011;5655;48.744;9.162;2022-12-18T09:43:48;50.03;;;22.63;;
11197;SDS011;5655;48.744;9.162;2022-12-18T09:46:36;51.07;;;22.43;;
11197;SDS011;5655;48.744;9.162;2022-12-18T09:49:09;58.13;;;22.93;;
11197;SDS011;5655;48.744;9.162;2022-12-18T09:54:50;53.10;;;23.17;;
11197;SDS011;5655;48.744;9.162;2022-12-18T09:57:21;51.93;;;23.13;;
11197;SDS011;5655;48.744;9.162;2022-12-18T09:59:54;52.03;;;22.40;;
11197;SDS011;5655;48.744;9.162;2022-12-18T10:02:24;54.90;;;23.20;;
11197;SDS011;5655;48.744;9.162;2022-12-18T10:05:05;53.27;;;22.57;;
11197;SDS011;5655;48.744;9.162;2022-12-18T10:08:02;53.23;;;23.27;;
11197;SDS011;5655;48.744;9.162;2022-12-18T10:22:10;57.17;;;23.73;;
11197;SDS011;5655;48.744;9.162;2022-12-18T10:24:21;50.07;;;23.57;;
11197;SDS011;5655;48.744;9.162;2022-12-18T10:27:21;51.50;;;23.63;;
11197;SDS011;5655;48.744;9.162;2022-12-18T10:29:49;52.47;;;23.60;;
11197;SDS011;5655;48.744;9.162;2022-12-18T10:32:15;53.27;;;23.40;;
11197;SDS011;5655;48.744;9.162;2022-12-18T10:34:50;55.17;;;25.10;;
11197;SDS011;5655;48.744;9.162;2022-12-18T10:37:19;51.00;;;22.97;;
11197;SDS011;5655;48.744;9.162;2022-12-18T10:40:09;50.07;;;22.63;;
11197;SDS011;5655;48.744;9.162;2022-12-18T10:42:32;50.20;;;23.83;;
11197;SDS011;5655;48.744;9.162;2022-12-18T10:45:02;53.90;;;24.50;;
11197;SDS011;5655;48.744;9.162;2022-12-18T10:47:33;54.37;;;23.93;;
11197;SDS011;5655;48.744;9.162;2022-12-18T10:49:59;53.90;;;23.57;;
11197;SDS011;5655;48.744;9.162;2022-12-18T10:52:25;49.73;;;22.20;;
11197;SDS011;5655;48.744;9.162;2022-12-18T10:54:55;47.07;;;22.97;;
11197;SDS011;5655;48.744;9.162;2022-12-18T10:57:37;41.50;;;20.90;;
11197;SDS011;5655;48.744;9.162;2022-12-18T11:00:20;42.13;;;21.20;;
11197;SDS011;5655;48.744;9.162;2022-12-18T11:02:46;47.33;;;21.80;;
11197;SDS011;5655;48.744;9.162;2022-12-18T11:05:22;45.53;;;21.77;;
11197;SDS011;5655;48.744;9.162;2022-12-18T11:07:53;50.90;;;22.83;;
11197;SDS011;5655;48.744;9.162;2022-12-18T11:10:20;45.27;;;21.73;;
11197;SDS011;5655;48.744;9.162;2022-12-18T11:12:47;49.83;;;22.67;;
11197;SDS011;5655;48.744;9.162;2022-12-18T11:18:16;46.03;;;22.23;;
11197;SDS011;5655;48.744;9.162;2022-12-18T11:20:49;44.63;;;22.37;;
11197;SDS011;5655;48.744;9.162;2022-12-18T11:23:16;42.73;;;21.10;;
11197;SDS011;5655;48.744;9.162;2022-12-18T11:25:52;37.53;;;19.10;;
11197;SDS011;5655;48.744;9.162;2022-12-18T11:28:28;39.80;;;18.43;;
11197;SDS011;5655;48.744;9.162;2022-12-18T11:34:09;37.53;;;19.53;;
11197;SDS011;5655;48.744;9.162;2022-12-18T11:36:43;37.33;;;19.67;;
11197;SDS011;5655;48.744;9.162;2022-12-18T11:45:02;41.63;;;20.60;;
11197;SDS011;5655;48.744;9.162;2022-12-18T11:47:39;40.37;;;21.23;;
11197;SDS011;5655;48.744;9.162;2022-12-18T11:50:16;40.63;;;19.27;;
11197;SDS011;5655;48.744;9.162;2022-12-18T11:52:44;43.93;;;20.43;;
11197;SDS011;5655;48.744;9.162;2022-12-18T11:55:13;42.07;;;20.10;;
11197;SDS011;5655;48.744;9.162;2022-12-18T12:00:35;39.10;;;19.63;;
11197;SDS011;5655;48.744;9.162;2022-12-18T12:03:15;41.47;;;20.20;;
11197;SDS011;5655;48.744;9.162;2022-12-18T12:05:54;41.60;;;19.23;;
11197;SDS011;5655;48.744;9.162;2022-12-18T12:11:18;35.10;;;17.70;;
11197;SDS011;5655;48.744;9.162;2022-12-18T12:17:07;38.70;;;19.00;;
11197;SDS011;5655;48.744;9.162;2022-12-18T12:25:21;40.47;;;18.77;;
11197;SDS011;5655;48.744;9.162;2022-12-18T12:28:01;40.83;;;18.23;;
11197;SDS011;5655;48.744;9.162;2022-12-18T12:33:22;36.07;;;17.90;;
11197;SDS011;5655;48.744;9.162;2022-12-18T12:38:48;38.60;;;18.97;;
11197;SDS011;5655;48.744;9.162;2022-12-18T12:41:19;41.23;;;18.63;;
11197;SDS011;5655;48.744;9.162;2022-12-18T12:44:07;40.90;;;17.97;;
11197;SDS011;5655;48.744;9.162;2022-12-18T12:46:39;42.13;;;18.13;;
11197;SDS011;5655;48.744;9.162;2022-12-18T12:49:14;37.07;;;17.87;;
11197;SDS011;5655;48.744;9.162;2022-12-18T12:51:46;35.73;;;17.47;;
11197;SDS011;5655;48.744;9.162;2022-12-18T12:54:31;43.27;;;18.40;;
11197;SDS011;5655;48.744;9.162;2022-12-18T12:59:50;35.87;;;17.30;;
11197;SDS011;5655;48.744;9.162;2022-12-18T13:05:29;39.20;;;18.37;;
11197;SDS011;5655;48.744;9.162;2022-12-18T13:08:03;43.97;;;20.00;;
11197;SDS011;5655;48.744;9.162;2022-12-18T13:13:00;34.57;;;17.83;;
11197;SDS011;5655;48.744;9.162;2022-12-18T13:18:15;43.87;;;19.00;;
11197;SDS011;5655;48.744;9.162;2022-12-18T13:28:15;35.03;;;18.43;;
11197;SDS011;5655;48.744;9.162;2022-12-18T13:31:00;39.77;;;17.57;;
11197;SDS011;5655;48.744;9.162;2022-12-18T13:44:33;42.10;;;19.23;;
11197;SDS011;5655;48.744;9.162;2022-12-18T13:47:00;41.37;;;18.33;;
11197;SDS011;5655;48.744;9.162;2022-12-18T13:49:40;39.73;;;17.23;;
11197;SDS011;5655;48.744;9.162;2022-12-18T13:52:18;43.30;;;18.17;;
11197;SDS011;5655;48.744;9.162;2022-12-18T13:54:53;39.43;;;17.40;;
11197;SDS011;5655;48.744;9.162;2022-12-18T13:57:31;37.97;;;17.43;;
11197;SDS011;5655;48.744;9.162;2022-12-18T14:02:44;43.37;;;18.60;;
11197;SDS011;5655;48.744;9.162;2022-12-18T14:05:21;40.97;;;19.20;;
11197;SDS011;5655;48.744;9.162;2022-12-18T14:08:01;41.20;;;18.67;;
11197;SDS011;5655;48.744;9.162;2022-12-18T14:10:30;44.90;;;19.50;;
11197;SDS011;5655;48.744;9.162;2022-12-18T14:12:56;39.90;;;19.37;;
11197;SDS011;5655;48.744;9.162;2022-12-18T14:18:41;43.60;;;18.30;;
11197;SDS011;5655;48.744;9.162;2022-12-18T14:21:05;44.17;;;20.13;;
11197;SDS011;5655;48.744;9.162;2022-12-18T14:23:33;41.47;;;19.27;;
11197;SDS011;5655;48.744;9.162;2022-12-18T14:25:59;43.70;;;20.03;;
11197;SDS011;5655;48.744;9.162;2022-12-18T14:28:25;43.37;;;20.80;;
11197;SDS011;5655;48.744;9.162;2022-12-18T14:30:51;41.00;;;19.90;;
11197;SDS011;5655;48.744;9.162;2022-12-18T14:33:21;49.60;;;21.03;;
11197;SDS011;5655;48.744;9.162;2022-12-18T14:38:30;48.63;;;21.70;;
11197;SDS011;5655;48.744;9.162;2022-12-18T14:43:35;48.23;;;21.67;;
11197;SDS011;5655;48.744;9.162;2022-12-18T14:46:02;47.53;;;21.40;;
11197;SDS011;5655;48.744;9.162;2022-12-18T14:48:50;44.57;;;19.83;;
11197;SDS011;5655;48.744;9.162;2022-12-18T14:51:17;48.57;;;20.67;;
11197;SDS011;5655;48.744;9.162;2022-12-18T14:56:19;50.03;;;21.47;;
11197;SDS011;5655;48.744;9.162;2022-12-18T14:58:48;45.43;;;21.00;;
11197;SDS011;5655;48.744;9.162;2022-12-18T15:01:38;53.67;;;22.53;;
11197;SDS011;5655;48.744;9.162;2022-12-18T15:04:04;51.97;;;22.40;;
11197;SDS011;5655;48.744;9.162;2022-12-18T15:06:48;46.97;;;21.47;;
11197;SDS011;5655;48.744;9.162;2022-12-18T15:09:23;45.63;;;22.33;;
11197;SDS011;5655;48.744;9.162;2022-12-18T15:11:54;52.10;;;21.80;;
11197;SDS011;5655;48.744;9.162;2022-12-18T15:14:32;49.27;;;21.63;;
11197;SDS011;5655;48.744;9.162;2022-12-18T15:17:05;59.20;;;21.50;;
11197;SDS011;5655;48.744;9.162;2022-12-18T15:19:39;56.20;;;22.63;;
11197;SDS011;5655;48.744;9.162;2022-12-18T15:24:53;58.73;;;24.97;;
11197;SDS011;5655;48.744;9.162;2022-12-18T15:27:20;50.90;;;23.57;;
11197;SDS011;5655;48.744;9.162;2022-12-18T15:32:35;55.67;;;22.80;;
11197;SDS011;5655;48.744;9.162;2022-12-18T15:35:03;57.63;;;23.30;;
11197;SDS011;5655;48.744;9.162;2022-12-18T15:37:45;56.93;;;24.77;;
11197;SDS011;5655;48.744;9.162;2022-12-18T15:40:12;50.93;;;22.47;;
11197;SDS011;5655;48.744;9.162;2022-12-18T15:42:39;48.77;;;22.07;;
11197;SDS011;5655;48.744;9.162;2022-12-18T15:45:23;46.60;;;22.80;;
11197;SDS011;5655;48.744;9.162;2022-12-18T15:47:49;51.97;;;23.40;;
11197;SDS011;5655;48.744;9.162;2022-12-18T15:50:14;52.27;;;22.20;;
11197;SDS011;5655;48.744;9.162;2022-12-18T15:52:41;56.70;;;23.97;;
11197;SDS011;5655;48.744;9.162;2022-12-18T15:55:19;59.63;;;22.27;;
11197;SDS011;5655;48.744;9.162;2022-12-18T15:58:08;50.37;;;22.43;;
11197;SDS011;5655;48.744;9.162;2022-12-18T16:00:35;50.17;;;23.47;;
11197;SDS011;5655;48.744;9.162;2022-12-18T16:03:03;55.73;;;23.10;;
11197;SDS011;5655;48.744;9.162;2022-12-18T16:05:29;58.57;;;23.73;;
11197;SDS011;5655;48.744;9.162;2022-12-18T16:07:55;60.60;;;24.30;;
11197;SDS011;5655;48.744;9.162;2022-12-18T16:10:20;52.33;;;23.40;;
11197;SDS011;5655;48.744;9.162;2022-12-18T16:12:46;47.83;;;23.67;;
11197;SDS011;5655;48.744;9.162;2022-12-18T16:15:13;52.93;;;23.93;;
11197;SDS011;5655;48.744;9.162;2022-12-18T16:17:40;59.77;;;24.40;;
11197;SDS011;5655;48.744;9.162;2022-12-18T16:20:16;53.27;;;24.87;;
11197;SDS011;5655;48.744;9.162;2022-12-18T16:22:44;62.80;;;24.40;;
11197;SDS011;5655;48.744;9.162;2022-12-18T16:25:16;56.33;;;23.93;;
11197;SDS011;5655;48.744;9.162;2022-12-18T16:27:52;48.73;;;23.23;;
11197;SDS011;5655;48.744;9.162;2022-12-18T16:30:24;52.80;;;22.97;;
11197;SDS011;5655;48.744;9.162;2022-12-18T16:32:53;53.80;;;23.10;;
11197;SDS011;5655;48.744;9.162;2022-12-18T16:35:19;51.13;;;21.77;;
11197;SDS011;5655;48.744;9.162;2022-12-18T16:37:45;54.10;;;23.17;;
11197;SDS011;5655;48.744;9.162;2022-12-18T16:40:11;52.93;;;21.93;;
11197;SDS011;5655;48.744;9.162;2022-12-18T16:42:39;44.50;;;21.70;;
11197;SDS011;5655;48.744;9.162;2022-12-18T16:45:07;55.50;;;23.57;;
11197;SDS011;5655;48.744;9.162;2022-12-18T16:47:34;50.27;;;22.37;;
11197;SDS011;5655;48.744;9.162;2022-12-18T16:49:59;57.87;;;23.47;;
11197;SDS011;5655;48.744;9.162;2022-12-18T16:52:25;48.47;;;22.57;;